Time;durP1;ratioP1;P1;durP2;ratioP2;P2;SDS_P1;SDS_P2;PMS_P1;PMS_P2;Temp;Humidity;BMP_temperature;BMP_pressure;BME280_temperature;BME280_humidity;BME280_pressure;Samples;Min_cycle;Max_cycle;Signal;HPM_P1;HPM_P2
2020/12/12 09:47:14;;;;;;;20.55;5.57;;;9.90;99.90;;;;;;5101821;27;20132;-74
2020/12/12 10:36:59;;;;;;;12.77;6.00;;;10.10;99.90;;;;;;5090616;27;20341;-76
2020/12/12 10:40:31;;;;;;;12.48;5.88;;;10.20;99.90;;;;;;5079070;28;20023;-75
2020/12/12 10:42:20;;;;;;;18.92;6.10;;;10.60;99.90;;;;;;5058353;28;20028;-75
2020/12/12 10:44:46;;;;;;;16.45;5.57;;;11.00;99.90;;;;;;5074091;28;20050;-74
2020/12/12 10:47:11;;;;;;;10.75;5.55;;;11.20;99.90;;;;;;5053972;27;20040;-75
2020/12/12 10:49:37;;;;;;;19.15;6.05;;;11.50;99.90;;;;;;5040454;28;20562;-75
2020/12/12 10:52:05;;;;;;;18.52;6.50;;;11.60;99.90;;;;;;5039339;28;20521;-75
2020/12/12 10:54:31;;;;;;;17.90;6.85;;;11.80;99.90;;;;;;5038179;28;20025;-75
2020/12/12 10:56:57;;;;;;;14.98;5.65;;;11.90;99.90;;;;;;5043497;28;20147;-75
2020/12/12 10:59:22;;;;;;;21.13;6.90;;;11.90;99.90;;;;;;5037866;28;20539;-76
2020/12/12 11:01:55;;;;;;;19.70;6.03;;;12.10;99.90;;;;;;5039539;28;20075;-75
2020/12/12 11:04:22;;;;;;;12.18;5.60;;;12.20;99.90;;;;;;5038739;28;20025;-75
2020/12/12 11:06:51;;;;;;;11.25;5.15;;;12.30;99.90;;;;;;5037454;28;20033;-73
2020/12/12 11:09:18;;;;;;;13.40;5.40;;;12.40;99.90;;;;;;5039806;28;20044;-74
2020/12/12 11:11:44;;;;;;;14.98;4.55;;;12.40;99.90;;;;;;5038817;28;20139;-74
2020/12/12 11:14:11;;;;;;;13.02;5.22;;;12.50;99.90;;;;;;5039295;28;20567;-75
2020/12/12 11:16:36;;;;;;;14.80;5.53;;;12.60;99.90;;;;;;5036550;28;20447;-75
2020/12/12 11:19:04;;;;;;;12.30;5.13;;;12.60;99.90;;;;;;5036010;28;20033;-75
2020/12/12 11:21:29;;;;;;;14.52;5.53;;;12.50;99.90;;;;;;5054904;28;20075;-74
2020/12/12 11:23:55;;;;;;;12.88;5.28;;;12.50;99.90;;;;;;5037562;28;20507;-74
2020/12/12 11:26:23;;;;;;;16.55;6.07;;;12.60;99.90;;;;;;5035223;28;20054;-74
2020/12/12 11:28:49;;;;;;;14.60;5.97;;;12.70;99.90;;;;;;5037020;28;20599;-74
2020/12/12 11:31:17;;;;;;;16.65;5.15;;;12.70;99.90;;;;;;5031086;28;20068;-74
2020/12/12 11:33:45;;;;;;;12.48;4.75;;;12.80;99.90;;;;;;5018937;28;20074;-76
2020/12/12 11:36:21;;;;;;;12.80;4.80;;;12.80;99.90;;;;;;5020663;28;20046;-75
2020/12/12 11:39:00;;;;;;;12.55;4.53;;;12.70;99.90;;;;;;5021663;28;20033;-76
2020/12/12 11:46:38;;;;;;;18.35;4.47;;;12.60;99.90;;;;;;5028368;28;20055;-76
2020/12/12 11:49:05;;;;;;;16.65;4.72;;;12.70;99.90;;;;;;5015820;28;20034;-76
2020/12/12 11:59:31;;;;;;;13.90;4.97;;;12.10;99.90;;;;;;5116746;27;20123;-73
2020/12/12 12:01:57;;;;;;;15.60;5.45;;;11.90;99.90;;;;;;5064616;27;20558;-74
2020/12/12 12:04:23;;;;;;;9.68;4.63;;;11.90;99.90;;;;;;5066387;28;20542;-75
2020/12/12 12:06:49;;;;;;;15.02;4.78;;;11.90;99.90;;;;;;5059207;28;20116;-75
2020/12/12 12:11:53;;;;;;;12.80;5.13;;;12.20;99.90;;;;;;5058550;28;20029;-75
2020/12/12 12:14:18;;;;;;;15.02;5.10;;;12.40;99.90;;;;;;5056132;28;20029;-75
2020/12/12 12:16:44;;;;;;;15.18;6.00;;;12.40;99.90;;;;;;5055470;28;20032;-74
2020/12/12 12:19:12;;;;;;;10.95;4.95;;;12.50;99.90;;;;;;5056833;28;20646;-75
2020/12/12 12:21:38;;;;;;;15.68;5.38;;;12.60;99.90;;;;;;5060310;28;20039;-74
2020/12/12 12:24:05;;;;;;;10.90;5.15;;;12.60;99.90;;;;;;5057441;28;20025;-74
2020/12/12 13:04:04;;;;;;;7.45;2.60;;;10.50;99.90;;;;;;5108277;27;20357;-76
2020/12/12 13:06:32;;;;;;;4.35;2.28;;;10.50;99.90;;;;;;5108130;27;20039;-75
2020/12/12 13:08:58;;;;;;;4.60;2.40;;;10.80;99.90;;;;;;5115440;27;20041;-74
2020/12/12 13:11:24;;;;;;;6.60;2.45;;;11.10;99.90;;;;;;5108172;27;20032;-74
2020/12/12 13:13:50;;;;;;;5.32;2.20;;;11.40;99.90;;;;;;5111269;27;20031;-76
2020/12/12 13:16:18;;;;;;;4.88;2.40;;;11.60;99.90;;;;;;5101110;27;20934;-75
2020/12/12 13:37:28;;;;;;;3.53;1.88;;;10.60;99.90;;;;;;5094194;27;21196;-74
2020/12/12 13:39:53;;;;;;;9.82;1.83;;;10.60;99.90;;;;;;5094833;28;20031;-75
2020/12/12 13:42:19;;;;;;;2.63;1.80;;;10.80;99.90;;;;;;5105992;27;20024;-75
2020/12/12 13:44:45;;;;;;;2.70;2.10;;;11.10;99.90;;;;;;5087264;28;20027;-74
2020/12/12 13:47:12;;;;;;;2.78;1.83;;;11.30;99.90;;;;;;5074945;27;20040;-73
2020/12/12 13:49:39;;;;;;;6.15;2.05;;;11.50;99.90;;;;;;5071333;28;20024;-74
2020/12/12 13:52:05;;;;;;;6.78;2.25;;;11.70;99.90;;;;;;5074597;28;20067;-76
2020/12/12 13:54:31;;;;;;;3.53;1.98;;;11.90;99.90;;;;;;5074480;28;20034;-76
2020/12/12 13:56:57;;;;;;;4.43;2.22;;;11.90;99.90;;;;;;5074072;28;20479;-75
